sensor_id;sensor_type;location;lat;lon;timestamp;temperature;humidity
6954;DHT22;3516;47.980;8.808;2023-01-19T04:50:00;-8.00;99.90
6954;DHT22;3516;47.980;8.808;2023-01-19T04:52:30;-8.10;99.90
6954;DHT22;3516;47.980;8.808;2023-01-19T04:54:59;-8.20;99.90
6954;DHT22;3516;47.980;8.808;2023-01-19T04:57:26;-8.10;99.90
6954;DHT22;3516;47.980;8.808;2023-01-19T04:59:52;-8.10;99.90
6954;DHT22;3516;47.980;8.808;2023-01-19T05:02:19;-8.20;99.90
6954;DHT22;3516;47.980;8.808;2023-01-19T05:04:47;-8.20;99.90
6954;DHT22;3516;47.980;8.808;2023-01-19T05:07:15;-8.10;99.90
6954;DHT22;3516;47.980;8.808;2023-01-19T05:09:42;-8.10;99.90
6954;DHT22;3516;47.980;8.808;2023-01-19T05:12:08;-8.10;99.90
6954;DHT22;3516;47.980;8.808;2023-01-19T05:14:36;-8.20;99.90
6954;DHT22;3516;47.980;8.808;2023-01-19T05:17:03;-8.20;99.90
6954;DHT22;3516;47.980;8.808;2023-01-19T05:19:30;-8.20;99.90
6954;DHT22;3516;47.980;8.808;2023-01-19T05:21:56;-8.20;99.90
6954;DHT22;3516;47.980;8.808;2023-01-19T05:24:24;-8.30;99.90
6954;DHT22;3516;47.980;8.808;2023-01-19T05:26:51;-8.30;99.90
6954;DHT22;3516;47.980;8.808;2023-01-19T05:29:18;-8.40;99.90
6954;DHT22;3516;47.980;8.808;2023-01-19T05:31:45;-8.40;99.90
6954;DHT22;3516;47.980;8.808;2023-01-19T05:34:12;-8.40;99.90
6954;DHT22;3516;47.980;8.808;2023-01-19T05:36:40;-8.40;99.90
6954;DHT22;3516;47.980;8.808;2023-01-19T05:39:06;-8.40;99.90
6954;DHT22;3516;47.980;8.808;2023-01-19T05:41:35;-8.40;99.90
6954;DHT22;3516;47.980;8.808;2023-01-19T05:44:01;-8.40;99.90
6954;DHT22;3516;47.980;8.808;2023-01-19T05:46:28;-8.50;99.90
6954;DHT22;3516;47.980;8.808;2023-01-19T05:48:55;-8.50;99.90
6954;DHT22;3516;47.980;8.808;2023-01-19T05:51:22;-8.60;99.90
6954;DHT22;3516;47.980;8.808;2023-01-19T05:53:49;-8.60;99.90
6954;DHT22;3516;47.980;8.808;2023-01-19T05:56:16;-8.60;99.90
6954;DHT22;3516;47.980;8.808;2023-01-19T05:58:44;-8.60;99.90
6954;DHT22;3516;47.980;8.808;2023-01-19T06:01:11;-8.60;99.90
6954;DHT22;3516;47.980;8.808;2023-01-19T06:03:37;-8.60;99.90
6954;DHT22;3516;47.980;8.808;2023-01-19T06:06:05;-8.60;99.90
6954;DHT22;3516;47.980;8.808;2023-01-19T06:08:32;-8.70;99.90
6954;DHT22;3516;47.980;8.808;2023-01-19T06:10:59;-8.70;99.90
6954;DHT22;3516;47.980;8.808;2023-01-19T06:13:26;-8.70;99.90
6954;DHT22;3516;47.980;8.808;2023-01-19T06:15:57;-8.70;99.90
6954;DHT22;3516;47.980;8.808;2023-01-19T06:18:24;-8.70;99.90
6954;DHT22;3516;47.980;8.808;2023-01-19T06:20:51;-8.70;99.90
6954;DHT22;3516;47.980;8.808;2023-01-19T06:23:23;-8.80;99.90
6954;DHT22;3516;47.980;8.808;2023-01-19T06:25:50;-8.80;99.90
6954;DHT22;3516;47.980;8.808;2023-01-19T06:28:16;-8.90;99.90
6954;DHT22;3516;47.980;8.808;2023-01-19T06:30:47;-8.90;99.90
6954;DHT22;3516;47.980;8.808;2023-01-19T06:33:15;-8.90;99.90
6954;DHT22;3516;47.980;8.808;2023-01-19T06:35:42;-8.90;99.90
6954;DHT22;3516;47.980;8.808;2023-01-19T06:38:09;-8.80;99.90
6954;DHT22;3516;47.980;8.808;2023-01-19T06:40:38;-8.80;99.90
6954;DHT22;3516;47.980;8.808;2023-01-19T06:43:04;-8.80;99.90
6954;DHT22;3516;47.980;8.808;2023-01-19T06:45:31;-8.80;99.90
6954;DHT22;3516;47.980;8.808;2023-01-19T06:47:58;-8.80;99.90
6954;DHT22;3516;47.980;8.808;2023-01-19T06:50:26;-8.80;99.90
6954;DHT22;3516;47.980;8.808;2023-01-19T06:52:53;-8.80;99.90
6954;DHT22;3516;47.980;8.808;2023-01-19T06:55:19;-8.80;99.90
6954;DHT22;3516;47.980;8.808;2023-01-19T06:57:46;-8.80;99.90
6954;DHT22;3516;47.980;8.808;2023-01-19T07:00:14;-8.80;99.90
6954;DHT22;3516;47.980;8.808;2023-01-19T07:02:41;-8.70;99.90
6954;DHT22;3516;47.980;8.808;2023-01-19T07:05:08;-8.70;99.90
6954;DHT22;3516;47.980;8.808;2023-01-19T07:07:37;-8.70;99.90
6954;DHT22;3516;47.980;8.808;2023-01-19T07:10:05;-8.70;99.90
6954;DHT22;3516;47.980;8.808;2023-01-19T07:12:32;-8.70;99.90
6954;DHT22;3516;47.980;8.808;2023-01-19T07:14:59;-8.70;99.90
6954;DHT22;3516;47.980;8.808;2023-01-19T07:17:26;-8.70;99.90
6954;DHT22;3516;47.980;8.808;2023-01-19T07:19:52;-8.70;99.90
6954;DHT22;3516;47.980;8.808;2023-01-19T07:22:19;-8.80;99.90
6954;DHT22;3516;47.980;8.808;2023-01-19T07:24:47;-8.80;99.90
6954;DHT22;3516;47.980;8.808;2023-01-19T07:27:14;-8.80;99.90
6954;DHT22;3516;47.980;8.808;2023-01-19T07:29:40;-8.70;99.90
6954;DHT22;3516;47.980;8.808;2023-01-19T07:32:07;-8.70;99.90
6954;DHT22;3516;47.980;8.808;2023-01-19T07:34:34;-8.60;99.90
6954;DHT22;3516;47.980;8.808;2023-01-19T07:37:01;-8.60;99.90
6954;DHT22;3516;47.980;8.808;2023-01-19T07:39:28;-8.50;99.90
6954;DHT22;3516;47.980;8.808;2023-01-19T07:41:57;-8.50;99.90
6954;DHT22;3516;47.980;8.808;2023-01-19T07:44:24;-8.40;99.90
6954;DHT22;3516;47.980;8.808;2023-01-19T07:46:50;-8.40;99.90
6954;DHT22;3516;47.980;8.808;2023-01-19T07:49:17;-8.30;99.90
6954;DHT22;3516;47.980;8.808;2023-01-19T07:51:45;-8.20;99.90
6954;DHT22;3516;47.980;8.808;2023-01-19T07:54:11;-8.10;99.90
6954;DHT22;3516;47.980;8.808;2023-01-19T07:56:38;-7.70;99.90
6954;DHT22;3516;47.980;8.808;2023-01-19T07:59:08;-7.10;99.90
6954;DHT22;3516;47.980;8.808;2023-01-19T08:01:35;-6.70;99.90
6954;DHT22;3516;47.980;8.808;2023-01-19T08:04:02;-6.50;99.90
6954;DHT22;3516;47.980;8.808;2023-01-19T08:06:32;-6.40;99.90
6954;DHT22;3516;47.980;8.808;2023-01-19T08:08:59;-6.00;99.90
6954;DHT22;3516;47.980;8.808;2023-01-19T08:11:26;-5.80;99.90
6954;DHT22;3516;47.980;8.808;2023-01-19T08:13:52;-5.40;99.90
6954;DHT22;3516;47.980;8.808;2023-01-19T08:16:20;-4.90;99.90
6954;DHT22;3516;47.980;8.808;2023-01-19T08:18:47;-4.40;99.90
6954;DHT22;3516;47.980;8.808;2023-01-19T08:21:14;-3.90;99.90
6954;DHT22;3516;47.980;8.808;2023-01-19T08:23:41;-3.50;99.90
6954;DHT22;3516;47.980;8.808;2023-01-19T08:26:18;-3.10;99.90
6954;DHT22;3516;47.980;8.808;2023-01-19T08:28:44;-2.80;99.90
6954;DHT22;3516;47.980;8.808;2023-01-19T08:31:11;-2.60;99.90
6954;DHT22;3516;47.980;8.808;2023-01-19T08:33:39;-2.20;99.90
6954;DHT22;3516;47.980;8.808;2023-01-19T08:36:07;-2.00;99.90
6954;DHT22;3516;47.980;8.808;2023-01-19T08:38:34;-1.80;99.90
6954;DHT22;3516;47.980;8.808;2023-01-19T08:41:01;-1.80;99.90
6954;DHT22;3516;47.980;8.808;2023-01-19T08:43:27;-1.80;99.90
6954;DHT22;3516;47.980;8.808;2023-01-19T08:45:54;-1.80;99.90
6954;DHT22;3516;47.980;8.808;2023-01-19T08:48:21;-1.80;99.90
6954;DHT22;3516;47.980;8.808;2023-01-19T08:50:50;-1.80;99.90
6954;DHT22;3516;47.980;8.808;2023-01-19T08:53:18;-2.00;99.90
6954;DHT22;3516;47.980;8.808;2023-01-19T08:55:47;-2.20;99.90
6954;DHT22;3516;47.980;8.808;2023-01-19T08:58:15;-2.70;99.90
6954;DHT22;3516;47.980;8.808;2023-01-19T09:00:42;-2.90;99.90
6954;DHT22;3516;47.980;8.808;2023-01-19T09:03:11;-3.10;99.90
6954;DHT22;3516;47.980;8.808;2023-01-19T09:05:38;-3.00;99.90
6954;DHT22;3516;47.980;8.808;2023-01-19T09:08:08;-3.20;99.90
6954;DHT22;3516;47.980;8.808;2023-01-19T09:10:36;-3.30;99.90
6954;DHT22;3516;47.980;8.808;2023-01-19T09:13:06;-3.50;99.90
6954;DHT22;3516;47.980;8.808;2023-01-19T09:15:35;-3.70;99.90
6954;DHT22;3516;47.980;8.808;2023-01-19T09:18:03;-3.90;99.90
6954;DHT22;3516;47.980;8.808;2023-01-19T09:20:30;-4.20;99.90
6954;DHT22;3516;47.980;8.808;2023-01-19T09:22:59;-4.30;99.90
6954;DHT22;3516;47.980;8.808;2023-01-19T09:25:27;-4.50;99.90
6954;DHT22;3516;47.980;8.808;2023-01-19T09:27:54;-4.60;99.90
6954;DHT22;3516;47.980;8.808;2023-01-19T09:30:21;-4.80;99.90
6954;DHT22;3516;47.980;8.808;2023-01-19T09:32:48;-4.70;99.90
6954;DHT22;3516;47.980;8.808;2023-01-19T09:35:15;-4.50;99.90
6954;DHT22;3516;47.980;8.808;2023-01-19T09:37:45;-4.30;99.90
6954;DHT22;3516;47.980;8.808;2023-01-19T09:40:13;-4.10;99.90
6954;DHT22;3516;47.980;8.808;2023-01-19T09:42:43;-4.00;99.90
6954;DHT22;3516;47.980;8.808;2023-01-19T09:45:15;-3.90;99.90
6954;DHT22;3516;47.980;8.808;2023-01-19T09:47:44;-3.70;99.90
6954;DHT22;3516;47.980;8.808;2023-01-19T09:50:16;-3.70;99.90
6954;DHT22;3516;47.980;8.808;2023-01-19T09:52:52;-3.60;99.90
6954;DHT22;3516;47.980;8.808;2023-01-19T09:55:24;-3.50;99.90
6954;DHT22;3516;47.980;8.808;2023-01-19T09:57:52;-3.40;99.90
6954;DHT22;3516;47.980;8.808;2023-01-19T10:00:20;-3.30;99.90
6954;DHT22;3516;47.980;8.808;2023-01-19T10:02:52;-3.30;99.90
6954;DHT22;3516;47.980;8.808;2023-01-19T10:05:25;-3.20;99.90
6954;DHT22;3516;47.980;8.808;2023-01-19T10:08:06;-3.20;99.90
6954;DHT22;3516;47.980;8.808;2023-01-19T10:10:35;-3.20;99.90
6954;DHT22;3516;47.980;8.808;2023-01-19T10:13:13;-3.20;99.90
6954;DHT22;3516;47.980;8.808;2023-01-19T10:15:48;-3.20;99.90
6954;DHT22;3516;47.980;8.808;2023-01-19T10:18:18;-3.20;99.90
6954;DHT22;3516;47.980;8.808;2023-01-19T10:20:51;-3.20;99.90
6954;DHT22;3516;47.980;8.808;2023-01-19T10:23:32;-3.20;99.90
6954;DHT22;3516;47.980;8.808;2023-01-19T10:26:05;-3.20;99.90
6954;DHT22;3516;47.980;8.808;2023-01-19T10:28:35;-3.20;99.90
6954;DHT22;3516;47.980;8.808;2023-01-19T10:31:04;-3.10;99.90
6954;DHT22;3516;47.980;8.808;2023-01-19T10:33:34;-3.10;99.90
6954;DHT22;3516;47.980;8.808;2023-01-19T10:36:03;-3.10;99.90
6954;DHT22;3516;47.980;8.808;2023-01-19T10:38:32;-3.10;99.90
6954;DHT22;3516;47.980;8.808;2023-01-19T10:41:02;-2.90;99.90
6954;DHT22;3516;47.980;8.808;2023-01-19T10:43:40;-2.60;99.90
6954;DHT22;3516;47.980;8.808;2023-01-19T10:46:15;-2.30;99.90
6954;DHT22;3516;47.980;8.808;2023-01-19T10:48:43;-2.20;99.90
6954;DHT22;3516;47.980;8.808;2023-01-19T10:51:13;-2.10;99.90
6954;DHT22;3516;47.980;8.808;2023-01-19T10:53:43;-2.00;99.90
6954;DHT22;3516;47.980;8.808;2023-01-19T10:56:22;-2.00;99.90
6954;DHT22;3516;47.980;8.808;2023-01-19T10:58:50;-2.00;99.90
6954;DHT22;3516;47.980;8.808;2023-01-19T11:01:19;-1.90;99.90
6954;DHT22;3516;47.980;8.808;2023-01-19T11:03:47;-2.00;99.90
6954;DHT22;3516;47.980;8.808;2023-01-19T11:06:26;-2.00;99.90
6954;DHT22;3516;47.980;8.808;2023-01-19T11:09:09;-1.90;99.90
6954;DHT22;3516;47.980;8.808;2023-01-19T11:11:42;-1.90;99.90
6954;DHT22;3516;47.980;8.808;2023-01-19T11:14:12;-1.80;99.90
6954;DHT22;3516;47.980;8.808;2023-01-19T11:16:40;-1.70;99.90
6954;DHT22;3516;47.980;8.808;2023-01-19T11:19:18;-1.60;99.90
6954;DHT22;3516;47.980;8.808;2023-01-19T11:21:45;-1.50;99.90
6954;DHT22;3516;47.980;8.808;2023-01-19T11:24:12;-1.40;99.90
6954;DHT22;3516;47.980;8.808;2023-01-19T11:26:42;-1.30;99.90
6954;DHT22;3516;47.980;8.808;2023-01-19T11:29:19;-1.10;99.90
6954;DHT22;3516;47.980;8.808;2023-01-19T11:31:46;-1.00;99.90
6954;DHT22;3516;47.980;8.808;2023-01-19T11:34:24;-0.90;99.90
6954;DHT22;3516;47.980;8.808;2023-01-19T11:36:56;-0.80;99.90
6954;DHT22;3516;47.980;8.808;2023-01-19T11:39:24;-0.70;99.90
6954;DHT22;3516;47.980;8.808;2023-01-19T11:41:56;-0.60;99.90
6954;DHT22;3516;47.980;8.808;2023-01-19T11:44:28;-0.50;99.90
6954;DHT22;3516;47.980;8.808;2023-01-19T11:46:57;-0.40;99.90
6954;DHT22;3516;47.980;8.808;2023-01-19T11:49:32;-0.20;99.90
6954;DHT22;3516;47.980;8.808;2023-01-19T11:52:03;-0.20;99.90
6954;DHT22;3516;47.980;8.808;2023-01-19T11:54:34;0.10;99.90
6954;DHT22;3516;47.980;8.808;2023-01-19T11:57:06;0.20;99.90
6954;DHT22;3516;47.980;8.808;2023-01-19T11:59:37;0.20;99.90
6954;DHT22;3516;47.980;8.808;2023-01-19T12:02:14;0.30;99.90
6954;DHT22;3516;47.980;8.808;2023-01-19T12:04:44;0.40;99.90
6954;DHT22;3516;47.980;8.808;2023-01-19T12:07:24;0.40;99.90
6954;DHT22;3516;47.980;8.808;2023-01-19T12:09:54;0.50;99.90
6954;DHT22;3516;47.980;8.808;2023-01-19T12:12:26;0.30;99.90
6954;DHT22;3516;47.980;8.808;2023-01-19T12:14:58;0.30;99.90
6954;DHT22;3516;47.980;8.808;2023-01-19T12:17:28;0.10;99.90
6954;DHT22;3516;47.980;8.808;2023-01-19T12:20:03;0.00;99.90
6954;DHT22;3516;47.980;8.808;2023-01-19T12:22:34;0.00;99.90
6954;DHT22;3516;47.980;8.808;2023-01-19T12:25:06;0.10;99.90
6954;DHT22;3516;47.980;8.808;2023-01-19T12:27:41;0.00;99.90
6954;DHT22;3516;47.980;8.808;2023-01-19T12:30:16;0.00;99.90
6954;DHT22;3516;47.980;8.808;2023-01-19T12:32:44;-0.10;99.90
6954;DHT22;3516;47.980;8.808;2023-01-19T12:38:38;-0.10;99.90
6954;DHT22;3516;47.980;8.808;2023-01-19T12:41:26;-0.20;99.90
6954;DHT22;3516;47.980;8.808;2023-01-19T12:44:18;-0.20;99.90
6954;DHT22;3516;47.980;8.808;2023-01-19T12:46:51;-0.10;99.90
6954;DHT22;3516;47.980;8.808;2023-01-19T12:49:24;-0.20;99.90
6954;DHT22;3516;47.980;8.808;2023-01-19T12:51:54;-0.20;99.90
6954;DHT22;3516;47.980;8.808;2023-01-19T12:54:38;-0.20;99.90
6954;DHT22;3516;47.980;8.808;2023-01-19T12:57:17;-0.20;99.90
6954;DHT22;3516;47.980;8.808;2023-01-19T12:59:44;-0.30;99.90
6954;DHT22;3516;47.980;8.808;2023-01-19T13:05:18;-0.40;99.90
6954;DHT22;3516;47.980;8.808;2023-01-19T13:08:11;-0.30;99.90
6954;DHT22;3516;47.980;8.808;2023-01-19T13:16:59;-0.20;99.90
6954;DHT22;3516;47.980;8.808;2023-01-19T13:19:44;-0.10;99.90
6954;DHT22;3516;47.980;8.808;2023-01-19T13:25:26;-0.20;99.90
6954;DHT22;3516;47.980;8.808;2023-01-19T13:27:53;-0.20;99.90
6954;DHT22;3516;47.980;8.808;2023-01-19T13:30:22;-0.10;99.90
6954;DHT22;3516;47.980;8.808;2023-01-19T13:32:51;-0.20;99.90
6954;DHT22;3516;47.980;8.808;2023-01-19T13:35:19;-0.30;99.90
6954;DHT22;3516;47.980;8.808;2023-01-19T13:37:46;-0.30;99.90
6954;DHT22;3516;47.980;8.808;2023-01-19T13:40:21;-0.40;99.90
6954;DHT22;3516;47.980;8.808;2023-01-19T13:42:50;-0.40;99.90
6954;DHT22;3516;47.980;8.808;2023-01-19T13:45:26;-0.40;99.90
6954;DHT22;3516;47.980;8.808;2023-01-19T13:47:56;-0.40;99.90
6954;DHT22;3516;47.980;8.808;2023-01-19T13:50:27;-0.40;99.90
6954;DHT22;3516;47.980;8.808;2023-01-19T13:52:54;-0.40;99.90
6954;DHT22;3516;47.980;8.808;2023-01-19T13:55:25;-0.40;99.90
6954;DHT22;3516;47.980;8.808;2023-01-19T13:57:53;-0.40;99.90
6954;DHT22;3516;47.980;8.808;2023-01-19T14:00:22;-0.40;99.90
6954;DHT22;3516;47.980;8.808;2023-01-19T14:02:54;-0.40;99.90
6954;DHT22;3516;47.980;8.808;2023-01-19T14:05:24;-0.50;99.90
6954;DHT22;3516;47.980;8.808;2023-01-19T14:08:09;-0.60;99.90
6954;DHT22;3516;47.980;8.808;2023-01-19T14:10:40;-0.50;99.90
6954;DHT22;3516;47.980;8.808;2023-01-19T14:13:14;-0.60;99.90
6954;DHT22;3516;47.980;8.808;2023-01-19T14:15:41;-0.60;99.90
6954;DHT22;3516;47.980;8.808;2023-01-19T14:18:25;-0.70;99.90
6954;DHT22;3516;47.980;8.808;2023-01-19T14:20:54;-0.60;99.90
6954;DHT22;3516;47.980;8.808;2023-01-19T14:23:40;-0.60;99.90
6954;DHT22;3516;47.980;8.808;2023-01-19T14:26:40;-0.60;99.90
6954;DHT22;3516;47.980;8.808;2023-01-19T14:29:21;-0.60;99.90
6954;DHT22;3516;47.980;8.808;2023-01-19T14:31:50;-0.60;99.90
6954;DHT22;3516;47.980;8.808;2023-01-19T14:34:31;-0.60;99.90
6954;DHT22;3516;47.980;8.808;2023-01-19T14:36:59;-0.60;99.90
6954;DHT22;3516;47.980;8.808;2023-01-19T14:39:27;-0.60;99.90
6954;DHT22;3516;47.980;8.808;2023-01-19T14:41:58;-0.60;99.90
6954;DHT22;3516;47.980;8.808;2023-01-19T14:44:29;-0.60;99.90
6954;DHT22;3516;47.980;8.808;2023-01-19T14:46:57;-0.60;99.90
6954;DHT22;3516;47.980;8.808;2023-01-19T14:49:29;-0.70;99.90
6954;DHT22;3516;47.980;8.808;2023-01-19T14:51:57;-0.70;99.90
6954;DHT22;3516;47.980;8.808;2023-01-19T14:54:28;-0.60;99.90
6954;DHT22;3516;47.980;8.808;2023-01-19T14:56:57;-0.70;99.90
6954;DHT22;3516;47.980;8.808;2023-01-19T14:59:24;-0.70;99.90
6954;DHT22;3516;47.980;8.808;2023-01-19T15:01:51;-0.80;99.90
6954;DHT22;3516;47.980;8.808;2023-01-19T15:04:18;-0.80;99.90
6954;DHT22;3516;47.980;8.808;2023-01-19T15:06:45;-0.80;99.90
6954;DHT22;3516;47.980;8.808;2023-01-19T15:09:13;-0.90;99.90
6954;DHT22;3516;47.980;8.808;2023-01-19T15:11:41;-0.90;99.90
6954;DHT22;3516;47.980;8.808;2023-01-19T15:14:11;-1.00;99.90
6954;DHT22;3516;47.980;8.808;2023-01-19T15:16:39;-1.00;99.90
6954;DHT22;3516;47.980;8.808;2023-01-19T15:19:09;-1.10;99.90
6954;DHT22;3516;47.980;8.808;2023-01-19T15:21:36;-1.10;99.90
6954;DHT22;3516;47.980;8.808;2023-01-19T15:24:07;-1.10;99.90
6954;DHT22;3516;47.980;8.808;2023-01-19T15:26:35;-1.20;99.90
6954;DHT22;3516;47.980;8.808;2023-01-19T15:29:07;-1.20;99.90
6954;DHT22;3516;47.980;8.808;2023-01-19T15:31:37;-1.20;99.90
6954;DHT22;3516;47.980;8.808;2023-01-19T15:34:04;-1.30;99.90
6954;DHT22;3516;47.980;8.808;2023-01-19T15:36:30;-1.30;99.90
6954;DHT22;3516;47.980;8.808;2023-01-19T15:38:57;-1.30;99.90
6954;DHT22;3516;47.980;8.808;2023-01-19T15:41:26;-1.40;99.90
6954;DHT22;3516;47.980;8.808;2023-01-19T15:43:54;-1.40;99.90
6954;DHT22;3516;47.980;8.808;2023-01-19T15:46:22;-1.40;99.90
6954;DHT22;3516;47.980;8.808;2023-01-19T15:48:51;-1.40;99.90
6954;DHT22;3516;47.980;8.808;2023-01-19T15:51:20;-1.40;99.90
6954;DHT22;3516;47.980;8.808;2023-01-19T15:53:48;-1.40;99.90
6954;DHT22;3516;47.980;8.808;2023-01-19T15:56:15;-1.50;99.90
6954;DHT22;3516;47.980;8.808;2023-01-19T15:58:42;-1.50;99.90
6954;DHT22;3516;47.980;8.808;2023-01-19T16:01:11;-1.50;99.90
6954;DHT22;3516;47.980;8.808;2023-01-19T16:03:38;-1.50;99.90
6954;DHT22;3516;47.980;8.808;2023-01-19T16:06:07;-1.60;99.90
6954;DHT22;3516;47.980;8.808;2023-01-19T16:08:34;-1.60;99.90
6954;DHT22;3516;47.980;8.808;2023-01-19T16:11:04;-1.60;99.90
6954;DHT22;3516;47.980;8.808;2023-01-19T16:13:31;-1.60;99.90
6954;DHT22;3516;47.980;8.808;2023-01-19T16:16:01;-1.60;99.90
6954;DHT22;3516;47.980;8.808;2023-01-19T16:18:28;-1.60;99.90
6954;DHT22;3516;47.980;8.808;2023-01-19T16:20:55;-1.60;99.90
6954;DHT22;3516;47.980;8.808;2023-01-19T16:23:23;-1.70;99.90
6954;DHT22;3516;47.980;8.808;2023-01-19T16:25:57;-1.70;99.90
6954;DHT22;3516;47.980;8.808;2023-01-19T16:28:24;-1.70;99.90
6954;DHT22;3516;47.980;8.808;2023-01-19T16:30:51;-1.70;99.90
6954;DHT22;3516;47.980;8.808;2023-01-19T16:33:17;-1.70;99.90
6954;DHT22;3516;47.980;8.808;2023-01-19T16:35:44;-1.80;99.90
6954;DHT22;3516;47.980;8.808;2023-01-19T16:38:11;-1.80;99.90
6954;DHT22;3516;47.980;8.808;2023-01-19T16:40:39;-1.80;99.90
6954;DHT22;3516;47.980;8.808;2023-01-19T16:43:05;-1.80;99.90
6954;DHT22;3516;47.980;8.808;2023-01-19T16:45:32;-1.80;99.90
6954;DHT22;3516;47.980;8.808;2023-01-19T16:47:59;-1.80;99.90
6954;DHT22;3516;47.980;8.808;2023-01-19T16:50:25;-1.90;99.90
6954;DHT22;3516;47.980;8.808;2023-01-19T16:52:55;-1.90;99.90
6954;DHT22;3516;47.980;8.808;2023-01-19T16:55:21;-1.90;99.90
6954;DHT22;3516;47.980;8.808;2023-01-19T16:57:49;-1.90;99.90
6954;DHT22;3516;47.980;8.808;2023-01-19T17:00:17;-1.90;99.90
6954;DHT22;3516;47.980;8.808;2023-01-19T17:02:44;-1.90;99.90
6954;DHT22;3516;47.980;8.808;2023-01-19T17:05:11;-1.90;99.90
6954;DHT22;3516;47.980;8.808;2023-01-19T17:07:38;-1.90;99.90
6954;DHT22;3516;47.980;8.808;2023-01-19T17:10:06;-1.90;99.90
6954;DHT22;3516;47.980;8.808;2023-01-19T17:12:33;-1.90;99.90
6954;DHT22;3516;47.980;8.808;2023-01-19T17:15:01;-1.90;99.90
6954;DHT22;3516;47.980;8.808;2023-01-19T17:17:28;-1.90;99.90
6954;DHT22;3516;47.980;8.808;2023-01-19T17:19:55;-2.00;99.90
6954;DHT22;3516;47.980;8.808;2023-01-19T17:22:22;-2.00;99.90
6954;DHT22;3516;47.980;8.808;2023-01-19T17:24:48;-2.00;99.90
6954;DHT22;3516;47.980;8.808;2023-01-19T17:27:15;-2.10;99.90
6954;DHT22;3516;47.980;8.808;2023-01-19T17:29:42;-2.00;99.90
6954;DHT22;3516;47.980;8.808;2023-01-19T17:32:10;-2.00;99.90
6954;DHT22;3516;47.980;8.808;2023-01-19T17:34:37;-2.10;99.90
6954;DHT22;3516;47.980;8.808;2023-01-19T17:37:04;-2.10;99.90
6954;DHT22;3516;47.980;8.808;2023-01-19T17:39:30;-2.10;99.90
6954;DHT22;3516;47.980;8.808;2023-01-19T17:41:57;-2.10;99.90
6954;DHT22;3516;47.980;8.808;2023-01-19T17:44:24;-2.10;99.90
6954;DHT22;3516;47.980;8.808;2023-01-19T17:46:50;-2.10;99.90
6954;DHT22;3516;47.980;8.808;2023-01-19T17:49:18;-2.10;99.90
6954;DHT22;3516;47.980;8.808;2023-01-19T17:51:48;-2.10;99.90
6954;DHT22;3516;47.980;8.808;2023-01-19T17:54:16;-2.20;99.90
6954;DHT22;3516;47.980;8.808;2023-01-19T17:56:43;-2.20;99.90
6954;DHT22;3516;47.980;8.808;2023-01-19T17:59:09;-2.20;99.90
6954;DHT22;3516;47.980;8.808;2023-01-19T18:01:37;-2.30;99.90
6954;DHT22;3516;47.980;8.808;2023-01-19T18:04:05;-2.30;99.90
6954;DHT22;3516;47.980;8.808;2023-01-19T18:06:34;-2.30;99.90
6954;DHT22;3516;47.980;8.808;2023-01-19T18:09:01;-2.40;99.90
6954;DHT22;3516;47.980;8.808;2023-01-19T18:11:29;-2.40;99.90
6954;DHT22;3516;47.980;8.808;2023-01-19T18:13:56;-2.40;99.90
6954;DHT22;3516;47.980;8.808;2023-01-19T18:16:24;-2.40;99.90
6954;DHT22;3516;47.980;8.808;2023-01-19T18:18:52;-2.40;99.90
6954;DHT22;3516;47.980;8.808;2023-01-19T18:21:19;-2.40;99.90
6954;DHT22;3516;47.980;8.808;2023-01-19T18:23:48;-2.40;99.90
6954;DHT22;3516;47.980;8.808;2023-01-19T18:26:17;-2.40;99.90
6954;DHT22;3516;47.980;8.808;2023-01-19T18:28:44;-2.50;99.90
6954;DHT22;3516;47.980;8.808;2023-01-19T18:31:13;-2.50;99.90
6954;DHT22;3516;47.980;8.808;2023-01-19T18:33:40;-2.50;99.90
6954;DHT22;3516;47.980;8.808;2023-01-19T18:36:08;-2.50;99.90
6954;DHT22;3516;47.980;8.808;2023-01-19T18:38:35;-2.50;99.90
6954;DHT22;3516;47.980;8.808;2023-01-19T18:41:05;-2.60;99.90
6954;DHT22;3516;47.980;8.808;2023-01-19T18:43:32;-2.60;99.90
6954;DHT22;3516;47.980;8.808;2023-01-19T18:45:59;-2.60;99.90
6954;DHT22;3516;47.980;8.808;2023-01-19T18:48:26;-2.60;99.90
6954;DHT22;3516;47.980;8.808;2023-01-19T18:50:53;-2.60;99.90
6954;DHT22;3516;47.980;8.808;2023-01-19T18:53:20;-2.60;99.90
6954;DHT22;3516;47.980;8.808;2023-01-19T18:55:50;-2.60;99.90
6954;DHT22;3516;47.980;8.808;2023-01-19T18:58:19;-2.60;99.90
6954;DHT22;3516;47.980;8.808;2023-01-19T19:00:46;-2.70;99.90
6954;DHT22;3516;47.980;8.808;2023-01-19T19:03:13;-2.70;99.90
6954;DHT22;3516;47.980;8.808;2023-01-19T19:05:40;-2.70;99.90
6954;DHT22;3516;47.980;8.808;2023-01-19T19:08:07;-2.60;99.90
6954;DHT22;3516;47.980;8.808;2023-01-19T19:10:34;-2.70;99.90
6954;DHT22;3516;47.980;8.808;2023-01-19T19:13:01;-2.70;99.90
6954;DHT22;3516;47.980;8.808;2023-01-19T19:15:30;-2.70;99.90
6954;DHT22;3516;47.980;8.808;2023-01-19T19:17:57;-2.70;99.90
6954;DHT22;3516;47.980;8.808;2023-01-19T19:20:24;-2.70;99.90
6954;DHT22;3516;47.980;8.808;2023-01-19T19:22:51;-2.70;99.90
6954;DHT22;3516;47.980;8.808;2023-01-19T19:25:17;-2.70;99.90
6954;DHT22;3516;47.980;8.808;2023-01-19T19:27:44;-2.80;99.90
6954;DHT22;3516;47.980;8.808;2023-01-19T19:30:15;-2.80;99.90
6954;DHT22;3516;47.980;8.808;2023-01-19T19:32:44;-2.80;99.90
6954;DHT22;3516;47.980;8.808;2023-01-19T19:35:10;-2.80;99.90
6954;DHT22;3516;47.980;8.808;2023-01-19T19:37:39;-2.80;99.90
6954;DHT22;3516;47.980;8.808;2023-01-19T19:40:07;-2.80;99.90
6954;DHT22;3516;47.980;8.808;2023-01-19T19:42:34;-2.80;99.90
6954;DHT22;3516;47.980;8.808;2023-01-19T19:45:01;-2.80;99.90
6954;DHT22;3516;47.980;8.808;2023-01-19T19:47:28;-2.80;99.90
6954;DHT22;3516;47.980;8.808;2023-01-19T19:49:57;-2.80;99.90
6954;DHT22;3516;47.980;8.808;2023-01-19T19:52:24;-2.80;99.90
6954;DHT22;3516;47.980;8.808;2023-01-19T19:54:52;-2.80;99.90
6954;DHT22;3516;47.980;8.808;2023-01-19T19:57:18;-2.80;99.90
6954;DHT22;3516;47.980;8.808;2023-01-19T19:59:45;-2.80;99.90
6954;DHT22;3516;47.980;8.808;2023-01-19T20:02:12;-2.80;99.90
6954;DHT22;3516;47.980;8.808;2023-01-19T20:04:38;-2.70;99.90
6954;DHT22;3516;47.980;8.808;2023-01-19T20:07:06;-2.70;99.90
6954;DHT22;3516;47.980;8.808;2023-01-19T20:09:35;-2.70;99.90
6954;DHT22;3516;47.980;8.808;2023-01-19T20:12:01;-2.70;99.90
6954;DHT22;3516;47.980;8.808;2023-01-19T20:14:28;-2.70;99.90
6954;DHT22;3516;47.980;8.808;2023-01-19T20:16:55;-2.80;99.90
6954;DHT22;3516;47.980;8.808;2023-01-19T20:19:22;-2.70;99.90
6954;DHT22;3516;47.980;8.808;2023-01-19T20:21:48;-2.70;99.90
6954;DHT22;3516;47.980;8.808;2023-01-19T20:24:18;-2.70;99.90
6954;DHT22;3516;47.980;8.808;2023-01-19T20:26:48;-2.70;99.90
6954;DHT22;3516;47.980;8.808;2023-01-19T20:29:16;-2.70;99.90
6954;DHT22;3516;47.980;8.808;2023-01-19T20:31:44;-2.70;99.90
6954;DHT22;3516;47.980;8.808;2023-01-19T20:34:13;-2.70;99.90
6954;DHT22;3516;47.980;8.808;2023-01-19T20:36:41;-2.70;99.90
6954;DHT22;3516;47.980;8.808;2023-01-19T20:39:08;-2.70;99.90
6954;DHT22;3516;47.980;8.808;2023-01-19T20:41:38;-2.70;99.90
6954;DHT22;3516;47.980;8.808;2023-01-19T20:44:09;-2.70;99.90
6954;DHT22;3516;47.980;8.808;2023-01-19T20:46:36;-2.70;99.90
6954;DHT22;3516;47.980;8.808;2023-01-19T20:49:03;-2.70;99.90
6954;DHT22;3516;47.980;8.808;2023-01-19T20:51:30;-2.70;99.90
6954;DHT22;3516;47.980;8.808;2023-01-19T20:53:56;-2.70;99.90
6954;DHT22;3516;47.980;8.808;2023-01-19T20:56:23;-2.70;99.90
6954;DHT22;3516;47.980;8.808;2023-01-19T20:58:51;-2.70;99.90
6954;DHT22;3516;47.980;8.808;2023-01-19T21:01:20;-2.70;99.90
6954;DHT22;3516;47.980;8.808;2023-01-19T21:03:48;-2.70;99.90
6954;DHT22;3516;47.980;8.808;2023-01-19T21:06:15;-2.70;99.90
6954;DHT22;3516;47.980;8.808;2023-01-19T21:08:42;-2.70;99.90
6954;DHT22;3516;47.980;8.808;2023-01-19T21:11:10;-2.70;99.90
6954;DHT22;3516;47.980;8.808;2023-01-19T21:13:38;-2.70;99.90
6954;DHT22;3516;47.980;8.808;2023-01-19T21:16:06;-2.70;99.90
6954;DHT22;3516;47.980;8.808;2023-01-19T21:18:33;-2.70;99.90